createdAt,value
2018-02-05T00:00:45.328Z,0
2018-02-05T00:01:46.943Z,0
2018-02-05T00:02:48.596Z,0
2018-02-05T00:03:50.370Z,0
2018-02-05T00:04:51.976Z,0
2018-02-05T00:05:53.586Z,0
2018-02-05T00:06:55.702Z,0
2018-02-05T00:07:57.364Z,0
2018-02-05T00:08:58.919Z,0
2018-02-05T00:10:00.535Z,0
2018-02-05T00:11:02.169Z,0
2018-02-05T00:12:03.914Z,0
2018-02-05T00:13:05.736Z,0
2018-02-05T00:14:07.356Z,0
2018-02-05T00:15:08.951Z,0
2018-02-05T00:16:10.552Z,0
2018-02-05T00:17:12.306Z,0
2018-02-05T00:18:13.920Z,0
2018-02-05T00:19:15.521Z,0
2018-02-05T00:20:17.121Z,0
2018-02-05T00:21:18.724Z,0
2018-02-05T00:22:20.330Z,0
2018-02-05T00:23:21.932Z,0
2018-02-05T00:24:23.537Z,0
2018-02-05T00:25:25.139Z,0
2018-02-05T00:26:26.745Z,0
2018-02-05T00:27:28.349Z,0
2018-02-05T00:28:29.951Z,0
2018-02-05T00:29:31.553Z,0
2018-02-05T00:30:33.161Z,0
2018-02-05T00:31:34.769Z,0
2018-02-05T00:32:37.088Z,0
2018-02-05T00:33:38.688Z,0
2018-02-05T00:34:40.296Z,0
2018-02-05T00:35:41.899Z,0
2018-02-05T00:36:43.495Z,0
2018-02-05T00:37:45.103Z,0
2018-02-05T00:38:46.705Z,0
2018-02-05T00:39:48.306Z,0
2018-02-05T00:40:49.904Z,0
2018-02-05T00:41:51.510Z,0
2018-02-05T00:42:53.115Z,0
2018-02-05T00:43:54.720Z,0
2018-02-05T00:44:56.318Z,0
2018-02-05T00:45:57.926Z,0
2018-02-05T00:46:59.526Z,0
2018-02-05T00:48:01.133Z,0
2018-02-05T00:49:02.733Z,0
2018-02-05T00:50:04.357Z,0
2018-02-05T00:51:05.938Z,0
2018-02-05T00:52:07.546Z,0
2018-02-05T00:53:09.147Z,0
2018-02-05T00:54:10.751Z,0
2018-02-05T00:55:12.349Z,0
2018-02-05T00:56:13.953Z,0
2018-02-05T00:57:15.551Z,0
2018-02-05T00:58:17.157Z,0
2018-02-05T00:59:18.758Z,0
2018-02-05T01:00:20.361Z,0
2018-02-05T01:01:21.966Z,0
2018-02-05T01:02:24.330Z,0
2018-02-05T01:03:25.937Z,0
2018-02-05T01:04:27.538Z,0
2018-02-05T01:05:29.139Z,0
2018-02-05T01:06:30.744Z,0
2018-02-05T01:07:32.354Z,0
2018-02-05T01:08:33.958Z,0
2018-02-05T01:09:35.556Z,0
2018-02-05T01:10:37.158Z,0
2018-02-05T01:11:39.327Z,0
2018-02-05T01:12:40.929Z,0
2018-02-05T01:13:42.530Z,0
2018-02-05T01:14:44.135Z,0
2018-02-05T01:15:45.735Z,0
2018-02-05T01:16:47.341Z,0
2018-02-05T01:17:48.940Z,0
2018-02-05T01:18:50.540Z,0
2018-02-05T01:19:52.148Z,0
2018-02-05T01:20:53.747Z,0
2018-02-05T01:21:55.358Z,0
2018-02-05T01:22:56.957Z,0
2018-02-05T01:23:58.564Z,0
2018-02-05T01:25:00.163Z,0
2018-02-05T01:26:01.769Z,0
2018-02-05T01:27:03.373Z,0
2018-02-05T01:28:04.978Z,0
2018-02-05T01:29:06.589Z,0
2018-02-05T01:30:08.195Z,0
2018-02-05T01:31:09.791Z,0
2018-02-05T01:32:11.402Z,0
2018-02-05T01:33:13.007Z,0
2018-02-05T01:34:14.609Z,0
2018-02-05T01:35:16.211Z,0
2018-02-05T01:36:17.818Z,0
2018-02-05T01:37:19.421Z,0
2018-02-05T01:38:21.019Z,0
2018-02-05T01:39:22.622Z,0
2018-02-05T01:40:24.230Z,0
2018-02-05T01:41:25.838Z,0
2018-02-05T01:42:28.402Z,0
2018-02-05T01:43:30.008Z,0
2018-02-05T01:44:31.616Z,0
2018-02-05T01:45:33.225Z,0
2018-02-05T01:46:34.828Z,0
2018-02-05T01:47:36.434Z,0
2018-02-05T01:48:38.038Z,0
2018-02-05T01:49:39.650Z,0
2018-02-05T01:50:41.256Z,0
2018-02-05T01:51:42.866Z,0
2018-02-05T01:52:44.466Z,0
2018-02-05T01:53:46.075Z,0
2018-02-05T01:54:47.676Z,0
2018-02-05T01:55:49.288Z,0
2018-02-05T01:56:50.891Z,0
2018-02-05T01:57:52.502Z,0
2018-02-05T01:58:54.108Z,0
2018-02-05T01:59:55.716Z,0
2018-02-05T02:00:57.320Z,0
2018-02-05T02:01:58.926Z,0
2018-02-05T02:03:00.532Z,0
2018-02-05T02:04:02.150Z,0
2018-02-05T02:05:03.753Z,0
2018-02-05T02:06:05.360Z,0
2018-02-05T02:07:06.966Z,0
2018-02-05T02:08:08.575Z,0
2018-02-05T02:09:10.176Z,0
2018-02-05T02:10:11.785Z,0
2018-02-05T02:11:13.386Z,0
2018-02-05T02:12:14.998Z,0
2018-02-05T02:13:16.604Z,0
2018-02-05T02:14:18.210Z,0
2018-02-05T02:15:19.813Z,0
2018-02-05T02:16:21.417Z,0
2018-02-05T02:17:23.026Z,0
2018-02-05T02:18:24.683Z,0
2018-02-05T02:19:26.240Z,0
2018-02-05T02:20:27.847Z,0
2018-02-05T02:21:29.454Z,0
2018-02-05T02:22:31.064Z,0
2018-02-05T02:23:32.665Z,0
2018-02-05T02:24:34.277Z,0
2018-02-05T02:25:35.880Z,0
2018-02-05T02:26:37.488Z,0
2018-02-05T02:27:39.100Z,0
2018-02-05T02:28:40.733Z,0
2018-02-05T02:29:42.334Z,0
2018-02-05T02:30:43.939Z,0
2018-02-05T02:31:45.546Z,0
2018-02-05T02:32:47.156Z,0
2018-02-05T02:33:48.760Z,0
2018-02-05T02:34:50.365Z,0
2018-02-05T02:35:51.972Z,0
2018-02-05T02:36:53.577Z,0
2018-02-05T02:37:55.182Z,0
2018-02-05T02:38:56.785Z,0
2018-02-05T02:39:58.394Z,0
2018-02-05T02:41:00.841Z,0
2018-02-05T02:42:02.455Z,0
2018-02-05T02:43:04.061Z,0
2018-02-05T02:44:05.663Z,0
2018-02-05T02:45:07.269Z,0
2018-02-05T02:46:08.878Z,0
2018-02-05T02:47:10.485Z,0
2018-02-05T02:48:12.094Z,0
2018-02-05T02:49:13.696Z,0
2018-02-05T02:50:15.302Z,0
2018-02-05T02:51:16.902Z,0
2018-02-05T02:52:18.511Z,0
2018-02-05T02:53:20.116Z,0
2018-02-05T02:54:21.728Z,0
2018-02-05T02:55:23.334Z,0
2018-02-05T02:56:24.946Z,0
2018-02-05T02:57:26.549Z,0
2018-02-05T02:58:28.160Z,0
2018-02-05T02:59:30.524Z,0
2018-02-05T03:00:32.137Z,0
2018-02-05T03:01:33.742Z,0
2018-02-05T03:02:35.353Z,0
2018-02-05T03:03:36.962Z,0
2018-02-05T03:04:38.570Z,0
2018-02-05T03:05:40.176Z,0
2018-02-05T03:06:41.779Z,0
2018-02-05T03:07:43.388Z,0
2018-02-05T03:08:44.994Z,0
2018-02-05T03:09:46.604Z,0
2018-02-05T03:10:48.209Z,0
2018-02-05T03:11:49.814Z,0
2018-02-05T03:12:51.421Z,0
2018-02-05T03:13:53.029Z,0
2018-02-05T03:14:54.633Z,0
2018-02-05T03:15:56.238Z,0
2018-02-05T03:16:57.848Z,0
2018-02-05T03:17:59.458Z,0
2018-02-05T03:19:01.064Z,0
2018-02-05T03:20:02.666Z,0
2018-02-05T03:21:04.276Z,0
2018-02-05T03:22:05.888Z,0
2018-02-05T03:23:07.488Z,0
2018-02-05T03:24:09.097Z,0
2018-02-05T03:25:10.708Z,0
2018-02-05T03:26:12.316Z,0
2018-02-05T03:27:13.919Z,0
2018-02-05T03:28:15.530Z,0
2018-02-05T03:29:17.133Z,0
2018-02-05T03:30:18.741Z,0
2018-02-05T03:31:20.353Z,0
2018-02-05T03:32:21.960Z,0
2018-02-05T03:33:23.559Z,0
2018-02-05T03:34:25.163Z,0
2018-02-05T03:35:26.774Z,0
2018-02-05T03:36:28.382Z,0
2018-02-05T03:37:29.985Z,0
2018-02-05T03:38:31.593Z,0
2018-02-05T03:39:33.203Z,0
2018-02-05T03:40:34.810Z,0
2018-02-05T03:41:36.414Z,0
2018-02-05T03:42:38.018Z,0
2018-02-05T03:43:39.628Z,0
2018-02-05T03:44:41.232Z,0
2018-02-05T03:45:42.845Z,0
2018-02-05T03:46:44.450Z,0
2018-02-05T03:47:46.055Z,0
2018-02-05T03:48:47.654Z,0
2018-02-05T03:49:49.262Z,0
2018-02-05T03:50:50.865Z,0
2018-02-05T03:51:52.474Z,0
2018-02-05T03:52:54.083Z,0
2018-02-05T03:53:55.687Z,0
2018-02-05T03:54:57.289Z,0
2018-02-05T03:55:58.898Z,0
2018-02-05T03:57:00.503Z,0
2018-02-05T03:58:02.108Z,0
2018-02-05T03:59:03.712Z,0
2018-02-05T04:00:05.323Z,0
2018-02-05T04:01:06.931Z,0
2018-02-05T04:02:08.533Z,0
2018-02-05T04:03:10.761Z,0
2018-02-05T04:04:11.702Z,0
2018-02-05T04:05:13.311Z,0
2018-02-05T04:06:14.914Z,0
2018-02-05T04:07:16.526Z,0
2018-02-05T04:08:18.727Z,0
2018-02-05T04:09:20.338Z,0
2018-02-05T04:10:21.940Z,0
2018-02-05T04:11:23.549Z,0
2018-02-05T04:12:25.154Z,0
2018-02-05T04:13:26.764Z,0
2018-02-05T04:14:28.374Z,0
2018-02-05T04:15:29.981Z,0
2018-02-05T04:16:31.584Z,0
2018-02-05T04:17:33.191Z,0
2018-02-05T04:18:34.796Z,0
2018-02-05T04:19:36.399Z,0
2018-02-05T04:20:38.002Z,0
2018-02-05T04:21:39.618Z,0
2018-02-05T04:22:41.220Z,0
2018-02-05T04:23:42.832Z,0
2018-02-05T04:24:44.431Z,0
2018-02-05T04:25:46.036Z,0
2018-02-05T04:26:47.640Z,0
2018-02-05T04:27:49.249Z,0
2018-02-05T04:28:50.853Z,0
2018-02-05T04:29:52.457Z,0
2018-02-05T04:30:54.066Z,0
2018-02-05T04:31:55.673Z,0
2018-02-05T04:32:57.280Z,0
2018-02-05T04:33:58.886Z,0
2018-02-05T04:35:00.489Z,0
2018-02-05T04:36:02.096Z,0
2018-02-05T04:37:03.708Z,0
2018-02-05T04:38:05.314Z,0
2018-02-05T04:39:06.917Z,0
2018-02-05T04:40:08.526Z,0
2018-02-05T04:41:10.139Z,0
2018-02-05T04:42:11.746Z,0
2018-02-05T04:43:13.360Z,0
2018-02-05T04:44:14.961Z,0
2018-02-05T04:45:16.570Z,0
2018-02-05T04:46:18.182Z,0
2018-02-05T04:47:20.735Z,0
2018-02-05T04:48:22.341Z,0
2018-02-05T04:49:23.948Z,0
2018-02-05T04:50:25.558Z,0
2018-02-05T04:51:27.163Z,0
2018-02-05T04:52:28.769Z,0
2018-02-05T04:53:30.378Z,0
2018-02-05T04:54:31.987Z,0
2018-02-05T04:55:33.591Z,0
2018-02-05T04:56:35.197Z,0
2018-02-05T04:57:36.808Z,0
2018-02-05T04:58:38.418Z,0
2018-02-05T04:59:40.022Z,0
2018-02-05T05:00:41.628Z,0
2018-02-05T05:01:43.234Z,0
2018-02-05T05:02:44.838Z,0
2018-02-05T05:03:46.440Z,0
2018-02-05T05:04:48.045Z,0
2018-02-05T05:05:49.656Z,0
2018-02-05T05:06:51.260Z,0
2018-02-05T05:07:52.868Z,0
2018-02-05T05:08:54.472Z,0
2018-02-05T05:09:56.081Z,0
2018-02-05T05:10:57.682Z,0
2018-02-05T05:11:59.292Z,0
2018-02-05T05:13:00.898Z,0
2018-02-05T05:14:02.506Z,0
2018-02-05T05:15:04.106Z,0
2018-02-05T05:16:05.711Z,0
2018-02-05T05:17:07.314Z,0
2018-02-05T05:18:08.920Z,0
2018-02-05T05:19:10.524Z,0
2018-02-05T05:20:12.133Z,0
2018-02-05T05:21:13.737Z,0
2018-02-05T05:22:15.338Z,0
2018-02-05T05:23:16.944Z,0
2018-02-05T05:24:18.547Z,0
2018-02-05T05:25:20.153Z,0
2018-02-05T05:26:21.760Z,0
2018-02-05T05:27:24.354Z,0
2018-02-05T05:28:25.954Z,0
2018-02-05T05:29:27.557Z,0
2018-02-05T05:30:29.172Z,0
2018-02-05T05:31:30.768Z,0
2018-02-05T05:32:32.374Z,0
2018-02-05T05:33:33.985Z,0
2018-02-05T05:34:35.590Z,0
2018-02-05T05:35:37.983Z,0
2018-02-05T05:36:39.585Z,0
2018-02-05T05:37:41.196Z,0
2018-02-05T05:38:42.804Z,0
2018-02-05T05:39:44.406Z,0
2018-02-05T05:40:46.020Z,0
2018-02-05T05:41:47.629Z,0
2018-02-05T05:42:49.233Z,0
2018-02-05T05:43:50.840Z,0
2018-02-05T05:44:52.446Z,0
2018-02-05T05:45:54.052Z,0
2018-02-05T05:46:56.379Z,0
2018-02-05T05:47:57.990Z,0
2018-02-05T05:48:59.598Z,0
2018-02-05T05:50:01.195Z,0
2018-02-05T05:51:02.803Z,0
2018-02-05T05:52:04.408Z,0
2018-02-05T05:53:06.013Z,0
2018-02-05T05:54:07.614Z,0
2018-02-05T05:55:09.252Z,0
2018-02-05T05:56:10.824Z,0
2018-02-05T05:57:12.430Z,0
2018-02-05T05:58:14.032Z,0
2018-02-05T05:59:15.641Z,0
2018-02-05T06:00:17.242Z,0
2018-02-05T06:01:18.853Z,0
2018-02-05T06:02:20.456Z,0
2018-02-05T06:03:22.069Z,0
2018-02-05T06:04:23.668Z,0
2018-02-05T06:05:25.275Z,0
2018-02-05T06:06:26.883Z,0
2018-02-05T06:07:28.489Z,0
2018-02-05T06:08:30.628Z,0
2018-02-05T06:09:32.232Z,0
2018-02-05T06:10:33.835Z,0
2018-02-05T06:11:35.441Z,0
2018-02-05T06:12:37.047Z,0
2018-02-05T06:13:38.648Z,0
2018-02-05T06:14:40.256Z,0
2018-02-05T06:15:41.861Z,0
2018-02-05T06:16:43.470Z,0
2018-02-05T06:17:45.073Z,0
2018-02-05T06:18:46.682Z,0
2018-02-05T06:19:48.281Z,0
2018-02-05T06:20:49.889Z,0
2018-02-05T06:21:51.491Z,0
2018-02-05T06:22:53.098Z,0
2018-02-05T06:23:54.709Z,0
2018-02-05T06:24:56.313Z,0
2018-02-05T06:25:57.917Z,0
2018-02-05T06:26:59.526Z,4
2018-02-05T06:28:01.128Z,0
2018-02-05T06:29:02.737Z,0
2018-02-05T06:30:04.340Z,4
2018-02-05T06:31:05.958Z,4
2018-02-05T06:32:07.559Z,4
2018-02-05T06:33:09.164Z,4
2018-02-05T06:34:11.365Z,4
2018-02-05T06:35:12.967Z,4
2018-02-05T06:36:14.574Z,8
2018-02-05T06:37:16.181Z,8
2018-02-05T06:38:17.790Z,12
2018-02-05T06:39:19.398Z,16
2018-02-05T06:40:20.998Z,16
2018-02-05T06:41:22.605Z,20
2018-02-05T06:42:24.206Z,24
2018-02-05T06:43:25.816Z,28
2018-02-05T06:44:27.420Z,32
2018-02-05T06:45:29.029Z,40
2018-02-05T06:46:30.638Z,40
2018-02-05T06:47:32.237Z,48
2018-02-05T06:48:33.846Z,56
2018-02-05T06:49:35.448Z,64
2018-02-05T06:50:37.058Z,76
2018-02-05T06:51:38.665Z,84
2018-02-05T06:52:40.273Z,92
2018-02-05T06:53:41.882Z,116
2018-02-05T06:54:43.492Z,128
2018-02-05T06:55:45.096Z,144
2018-02-05T06:56:46.707Z,160
2018-02-05T06:57:48.311Z,176
2018-02-05T06:58:49.923Z,196
2018-02-05T06:59:51.564Z,216
2018-02-05T07:00:53.180Z,240
2018-02-05T07:01:54.783Z,260
2018-02-05T07:02:59.316Z,284
2018-02-05T07:04:00.858Z,312
2018-02-05T07:05:02.472Z,340
2018-02-05T07:06:04.084Z,364
2018-02-05T07:07:05.686Z,396
2018-02-05T07:08:07.299Z,428
2018-02-05T07:09:08.906Z,460
2018-02-05T07:10:10.515Z,496
2018-02-05T07:11:12.118Z,528
2018-02-05T07:12:13.730Z,568
2018-02-05T07:13:15.338Z,600
2018-02-05T07:14:16.949Z,600
2018-02-05T07:15:18.558Z,684
2018-02-05T07:16:20.160Z,724
2018-02-05T07:17:21.774Z,764
2018-02-05T07:18:23.378Z,804
2018-02-05T07:19:24.988Z,848
2018-02-05T07:20:26.597Z,892
2018-02-05T07:21:28.203Z,940
2018-02-05T07:22:29.811Z,988
2018-02-05T07:23:31.422Z,1032
2018-02-05T07:24:33.032Z,1080
2018-02-05T07:25:34.645Z,1128
2018-02-05T07:26:36.251Z,1176
2018-02-05T07:27:37.863Z,1232
2018-02-05T07:28:39.477Z,1280
2018-02-05T07:29:41.085Z,1324
2018-02-05T07:30:42.691Z,1372
2018-02-05T07:31:44.305Z,1424
2018-02-05T07:32:45.915Z,1476
2018-02-05T07:33:47.526Z,1520
2018-02-05T07:34:49.137Z,1568
2018-02-05T07:35:50.745Z,1612
2018-02-05T07:36:52.359Z,1664
2018-02-05T07:37:53.964Z,1704
2018-02-05T07:38:56.430Z,1756
2018-02-05T07:39:58.038Z,1804
2018-02-05T07:40:59.652Z,1848
2018-02-05T07:42:01.260Z,1804
2018-02-05T07:43:02.871Z,1888
2018-02-05T07:44:04.487Z,2028
2018-02-05T07:45:06.093Z,2072
2018-02-05T07:46:07.707Z,2136
2018-02-05T07:47:09.313Z,2180
2018-02-05T07:48:11.908Z,2212
2018-02-05T07:49:13.509Z,2256
2018-02-05T07:50:15.126Z,2300
2018-02-05T07:51:16.735Z,2348
2018-02-05T07:52:18.347Z,2392
2018-02-05T07:53:19.953Z,2432
2018-02-05T07:54:21.568Z,2488
2018-02-05T07:55:23.173Z,2536
2018-02-05T07:56:24.786Z,2576
2018-02-05T07:57:26.395Z,2620
2018-02-05T07:58:28.010Z,2648
2018-02-05T07:59:29.617Z,2692
2018-02-05T08:00:31.230Z,2760
2018-02-05T08:01:32.842Z,2816
2018-02-05T08:02:34.449Z,2884
2018-02-05T08:03:36.059Z,2960
2018-02-05T08:04:37.673Z,3016
2018-02-05T08:05:40.029Z,3076
2018-02-05T08:06:41.635Z,3100
2018-02-05T08:07:43.250Z,3132
2018-02-05T08:08:44.856Z,3168
2018-02-05T08:09:46.465Z,3196
2018-02-05T08:10:48.080Z,3220
2018-02-05T08:11:49.693Z,3244
2018-02-05T08:12:51.305Z,3276
2018-02-05T08:13:53.391Z,3280
2018-02-05T08:14:55.011Z,3344
2018-02-05T08:15:56.613Z,3392
2018-02-05T08:16:58.225Z,3428
2018-02-05T08:17:59.839Z,3456
2018-02-05T08:19:01.447Z,3476
2018-02-05T08:20:03.058Z,3500
2018-02-05T08:21:04.672Z,3540
2018-02-05T08:22:06.284Z,3612
2018-02-05T08:23:07.890Z,3704
2018-02-05T08:24:09.500Z,3764
2018-02-05T08:25:11.114Z,3832
2018-02-05T08:26:12.727Z,3916
2018-02-05T08:27:14.337Z,4056
2018-02-05T08:28:15.938Z,4512
2018-02-05T08:29:17.549Z,5128
2018-02-05T08:30:19.158Z,5960
2018-02-05T08:31:20.762Z,6840
2018-02-05T08:32:22.371Z,7420
2018-02-05T08:33:23.977Z,7772
2018-02-05T08:34:25.592Z,7960
2018-02-05T08:35:27.189Z,8028
2018-02-05T08:36:28.796Z,8196
2018-02-05T08:37:30.400Z,8616
2018-02-05T08:38:32.883Z,9228
2018-02-05T08:39:34.487Z,9660
2018-02-05T08:40:36.097Z,9860
2018-02-05T08:41:37.706Z,10024
2018-02-05T08:42:39.311Z,10272
2018-02-05T08:43:40.918Z,10448
2018-02-05T08:44:42.523Z,10600
2018-02-05T08:45:44.134Z,10832
2018-02-05T08:46:45.745Z,11032
2018-02-05T08:47:47.354Z,11312
2018-02-05T08:48:48.960Z,11544
2018-02-05T08:49:50.565Z,12116
2018-02-05T08:50:52.171Z,12700
2018-02-05T08:51:53.783Z,13164
2018-02-05T08:52:55.393Z,13624
2018-02-05T08:53:57.002Z,14132
2018-02-05T08:54:58.609Z,14360
2018-02-05T08:56:00.220Z,15104
2018-02-05T08:57:01.829Z,15904
2018-02-05T08:58:03.432Z,16576
2018-02-05T08:59:05.044Z,17344
2018-02-05T09:00:06.653Z,19584
2018-02-05T09:01:08.266Z,28384
2018-02-05T09:02:09.874Z,35712
2018-02-05T09:03:11.485Z,37248
2018-02-05T09:04:13.099Z,37184
2018-02-05T09:05:14.713Z,38080
2018-02-05T09:06:16.323Z,37152
2018-02-05T09:07:17.937Z,38048
2018-02-05T09:08:19.545Z,37504
2018-02-05T09:09:21.162Z,37760
2018-02-05T09:10:22.771Z,36800
2018-02-05T09:11:24.386Z,37152
2018-02-05T09:12:25.997Z,37312
2018-02-05T09:13:27.609Z,30144
2018-02-05T09:14:29.218Z,20864
2018-02-05T09:15:30.831Z,21920
2018-02-05T09:16:32.450Z,32288
2018-02-05T09:17:34.064Z,38336
2018-02-05T09:18:35.673Z,37760
2018-02-05T09:19:37.291Z,38048
2018-02-05T09:20:38.895Z,38080
2018-02-05T09:21:40.508Z,39040
2018-02-05T09:22:42.126Z,39104
2018-02-05T09:23:43.738Z,39680
2018-02-05T09:24:45.356Z,39648
2018-02-05T09:25:46.968Z,40064
2018-02-05T09:26:48.582Z,40608
2018-02-05T09:27:50.199Z,38912
2018-02-05T09:28:51.809Z,24256
2018-02-05T09:29:53.424Z,15444
2018-02-05T09:30:55.042Z,15840
2018-02-05T09:31:56.662Z,16256
2018-02-05T09:32:58.272Z,17600
2018-02-05T09:33:59.885Z,30816
2018-02-05T09:35:01.501Z,42816
2018-02-05T09:36:03.115Z,44416
2018-02-05T09:37:04.735Z,45024
2018-02-05T09:38:06.354Z,44864
2018-02-05T09:39:07.965Z,44672
2018-02-05T09:40:09.579Z,45024
2018-02-05T09:41:11.197Z,45888
2018-02-05T09:42:12.807Z,46688
2018-02-05T09:43:14.422Z,46144
2018-02-05T09:44:16.037Z,46656
2018-02-05T09:45:17.655Z,47680
2018-02-05T09:46:19.273Z,46336
2018-02-05T09:47:20.888Z,46656
2018-02-05T09:48:22.502Z,47552
2018-02-05T09:49:24.121Z,48864
2018-02-05T09:50:25.735Z,47840
2018-02-05T09:51:27.357Z,47680
2018-02-05T09:52:28.971Z,46144
2018-02-05T09:53:30.590Z,46688
2018-02-05T09:54:32.808Z,49312
2018-02-05T09:55:34.424Z,50816
2018-02-05T09:56:36.040Z,49824
2018-02-05T09:57:37.656Z,51072
2018-02-05T09:58:39.273Z,50816
2018-02-05T09:59:40.890Z,50848
2018-02-05T10:00:42.513Z,50400
2018-02-05T10:01:44.129Z,49984
2018-02-05T10:02:45.748Z,51328
2018-02-05T10:03:47.362Z,53184
2018-02-05T10:04:48.987Z,52352
2018-02-05T10:05:50.599Z,52160
2018-02-05T10:06:52.221Z,53184
2018-02-05T10:07:53.836Z,52480
2018-02-05T10:08:55.455Z,52000
2018-02-05T10:09:57.066Z,52480
2018-02-05T10:10:58.682Z,52128
2018-02-05T10:12:00.296Z,51840
2018-02-05T10:13:01.923Z,52320
2018-02-05T10:14:03.538Z,51936
2018-02-05T10:15:05.156Z,49536
2018-02-05T10:16:06.778Z,47264
2018-02-05T10:17:08.393Z,44192
2018-02-05T10:18:10.037Z,42368
2018-02-05T10:19:11.625Z,29056
2018-02-05T10:20:13.239Z,32416
2018-02-05T10:21:14.858Z,28992
2018-02-05T10:22:16.476Z,27104
2018-02-05T10:23:18.092Z,24128
2018-02-05T10:24:20.626Z,17824
2018-02-05T10:25:22.237Z,14388
2018-02-05T10:26:23.857Z,14148
2018-02-05T10:27:25.471Z,14284
2018-02-05T10:28:27.087Z,13824
2018-02-05T10:29:29.500Z,13584
2018-02-05T10:30:31.117Z,13548
2018-02-05T10:31:32.730Z,13612
2018-02-05T10:32:34.348Z,13400
2018-02-05T10:33:35.959Z,13384
2018-02-05T10:34:37.576Z,13392
2018-02-05T10:35:39.192Z,13524
2018-02-05T10:36:40.809Z,13360
2018-02-05T10:37:42.423Z,13372
2018-02-05T10:38:44.035Z,13196
2018-02-05T10:39:45.644Z,13324
2018-02-05T10:40:47.270Z,13116
2018-02-05T10:41:48.881Z,12912
2018-02-05T10:42:50.493Z,12828
2018-02-05T10:43:52.108Z,12836
2018-02-05T10:44:53.723Z,12872
2018-02-05T10:45:55.334Z,12844
2018-02-05T10:46:56.946Z,12604
2018-02-05T10:47:58.560Z,12544
2018-02-05T10:49:00.180Z,12480
2018-02-05T10:50:01.798Z,12384
2018-02-05T10:51:03.411Z,12288
2018-02-05T10:52:05.028Z,12216
2018-02-05T10:53:06.638Z,12036
2018-02-05T10:54:08.252Z,11848
2018-02-05T10:55:09.880Z,11764
2018-02-05T10:56:11.491Z,11552
2018-02-05T10:57:13.098Z,11332
2018-02-05T10:58:14.714Z,11216
2018-02-05T10:59:16.331Z,11436
2018-02-05T11:00:17.942Z,11820
2018-02-05T11:01:19.563Z,12576
2018-02-05T11:02:21.181Z,24960
2018-02-05T11:03:22.793Z,38016
2018-02-05T11:04:24.409Z,39680
2018-02-05T11:05:26.027Z,41664
2018-02-05T11:06:27.641Z,38304
2018-02-05T11:07:29.257Z,20992
2018-02-05T11:08:30.866Z,11744
2018-02-05T11:09:32.486Z,12492
2018-02-05T11:10:34.103Z,31008
2018-02-05T11:11:35.714Z,51872
2018-02-05T11:12:37.333Z,52288
2018-02-05T11:13:38.951Z,50944
2018-02-05T11:14:40.560Z,41120
2018-02-05T11:15:42.170Z,17632
2018-02-05T11:16:43.789Z,10716
2018-02-05T11:17:45.400Z,10500
2018-02-05T11:18:47.020Z,10452
2018-02-05T11:19:48.633Z,10760
2018-02-05T11:20:50.250Z,15064
2018-02-05T11:21:51.861Z,19328
2018-02-05T11:22:53.479Z,19680
2018-02-05T11:23:55.090Z,12272
2018-02-05T11:24:56.711Z,12076
2018-02-05T11:25:58.321Z,11660
2018-02-05T11:26:59.940Z,9804
2018-02-05T11:28:01.553Z,9844
2018-02-05T11:29:03.170Z,10404
2018-02-05T11:30:04.780Z,14676
2018-02-05T11:31:06.395Z,36480
2018-02-05T11:32:08.005Z,52896
2018-02-05T11:33:09.619Z,48288
2018-02-05T11:34:11.240Z,47232
2018-02-05T11:35:12.854Z,30816
2018-02-05T11:36:14.515Z,10872
2018-02-05T11:37:16.074Z,9540
2018-02-05T11:38:17.690Z,9496
2018-02-05T11:39:19.299Z,9492
2018-02-05T11:40:20.918Z,9464
2018-02-05T11:41:22.527Z,9476
2018-02-05T11:42:24.144Z,9656
2018-02-05T11:43:25.750Z,11024
2018-02-05T11:44:27.366Z,11020
2018-02-05T11:45:28.973Z,9240
2018-02-05T11:46:30.588Z,9188
2018-02-05T11:47:32.200Z,9100
2018-02-05T11:48:33.818Z,9184
2018-02-05T11:49:35.425Z,9112
2018-02-05T11:50:37.040Z,8972
2018-02-05T11:51:38.671Z,9472
2018-02-05T11:52:40.260Z,9856
2018-02-05T11:53:41.873Z,9632
2018-02-05T11:54:43.488Z,9308
2018-02-05T11:55:45.105Z,9776
2018-02-05T11:56:46.713Z,9876
2018-02-05T11:57:48.331Z,10540
2018-02-05T11:58:49.938Z,12240
2018-02-05T11:59:51.547Z,11368
2018-02-05T12:00:53.167Z,11484
2018-02-05T12:01:54.783Z,12664
2018-02-05T12:02:56.394Z,14040
2018-02-05T12:03:58.009Z,9740
2018-02-05T12:04:59.614Z,7524
2018-02-05T12:06:01.234Z,11164
2018-02-05T12:07:02.842Z,9272
2018-02-05T12:08:04.454Z,7384
2018-02-05T12:09:06.071Z,5992
2018-02-05T12:10:07.689Z,6316
2018-02-05T12:11:09.292Z,9272
2018-02-05T12:12:10.904Z,21696
2018-02-05T12:13:12.516Z,6524
2018-02-05T12:14:14.128Z,6072
2018-02-05T12:15:15.743Z,5364
2018-02-05T12:16:17.363Z,5352
2018-02-05T12:17:18.966Z,5396
2018-02-05T12:18:20.574Z,5776
2018-02-05T12:19:22.188Z,11008
2018-02-05T12:20:23.796Z,10912
2018-02-05T12:21:25.412Z,9920
2018-02-05T12:22:27.021Z,10688
2018-02-05T12:23:28.638Z,10416
2018-02-05T12:24:30.253Z,10356
2018-02-05T12:25:31.861Z,10172
2018-02-05T12:26:33.471Z,9936
2018-02-05T12:27:35.084Z,6124
2018-02-05T12:28:36.700Z,9816
2018-02-05T12:29:38.315Z,9716
2018-02-05T12:30:39.924Z,9348
2018-02-05T12:31:41.531Z,9364
2018-02-05T12:32:43.144Z,9476
2018-02-05T12:33:44.753Z,9668
2018-02-05T12:34:46.370Z,9668
2018-02-05T12:35:47.981Z,9700
2018-02-05T12:36:49.591Z,9936
2018-02-05T12:37:51.206Z,10320
2018-02-05T12:38:52.824Z,11232
2018-02-05T12:39:54.434Z,12884
2018-02-05T12:40:56.058Z,13736
2018-02-05T12:41:57.661Z,13664
2018-02-05T12:42:59.988Z,14200
2018-02-05T12:44:01.599Z,13764
2018-02-05T12:45:03.218Z,14072
2018-02-05T12:46:04.828Z,12520
2018-02-05T12:47:06.437Z,13824
2018-02-05T12:48:08.052Z,12900
2018-02-05T12:49:09.661Z,9676
2018-02-05T12:50:11.280Z,9228
2018-02-05T12:51:12.890Z,9404
2018-02-05T12:52:14.506Z,9420
2018-02-05T12:53:16.122Z,8744
2018-02-05T12:54:17.729Z,8552
2018-02-05T12:55:19.337Z,8212
2018-02-05T12:56:20.951Z,6816
2018-02-05T12:57:22.563Z,8328
2018-02-05T12:58:24.179Z,8352
2018-02-05T12:59:25.794Z,8184
2018-02-05T13:00:27.407Z,7388
2018-02-05T13:01:29.016Z,7964
2018-02-05T13:02:30.628Z,7968
2018-02-05T13:03:32.245Z,7960
2018-02-05T13:04:33.854Z,7976
2018-02-05T13:05:35.464Z,7960
2018-02-05T13:06:37.083Z,7936
2018-02-05T13:07:38.699Z,7832
2018-02-05T13:08:40.306Z,7756
2018-02-05T13:09:41.918Z,7700
2018-02-05T13:10:43.535Z,7556
2018-02-05T13:11:45.627Z,6216
2018-02-05T13:12:47.240Z,5836
2018-02-05T13:13:48.856Z,7440
2018-02-05T13:14:50.468Z,7308
2018-02-05T13:15:52.076Z,7280
2018-02-05T13:16:53.691Z,7308
2018-02-05T13:17:55.302Z,7212
2018-02-05T13:18:56.915Z,7124
2018-02-05T13:19:58.530Z,7088
2018-02-05T13:21:00.142Z,7168
2018-02-05T13:22:01.760Z,7268
2018-02-05T13:23:03.366Z,7340
2018-02-05T13:24:04.975Z,7296
2018-02-05T13:25:06.593Z,4780
2018-02-05T13:26:08.208Z,6716
2018-02-05T13:27:09.815Z,7176
2018-02-05T13:28:11.428Z,7036
2018-02-05T13:29:13.037Z,4640
2018-02-05T13:30:14.647Z,4892
2018-02-05T13:31:16.261Z,4696
2018-02-05T13:32:17.868Z,7012
2018-02-05T13:33:19.483Z,7036
2018-02-05T13:34:21.094Z,7056
2018-02-05T13:35:22.705Z,6928
2018-02-05T13:36:24.316Z,6812
2018-02-05T13:37:25.930Z,5784
2018-02-05T13:38:27.536Z,4164
2018-02-05T13:39:29.151Z,5168
2018-02-05T13:40:30.767Z,6600
2018-02-05T13:41:32.374Z,6632
2018-02-05T13:42:33.984Z,6396
2018-02-05T13:43:35.599Z,6076
2018-02-05T13:44:37.209Z,4144
2018-02-05T13:45:38.820Z,6384
2018-02-05T13:46:40.433Z,6224
2018-02-05T13:47:42.043Z,6320
2018-02-05T13:48:43.659Z,4128
2018-02-05T13:49:45.271Z,6240
2018-02-05T13:50:46.884Z,6336
2018-02-05T13:51:48.493Z,6328
2018-02-05T13:52:50.104Z,6272
2018-02-05T13:53:51.714Z,6268
2018-02-05T13:54:53.328Z,6240
2018-02-05T13:55:54.936Z,6148
2018-02-05T13:56:56.551Z,6200
2018-02-05T13:57:58.160Z,6276
2018-02-05T13:58:59.772Z,6268
2018-02-05T14:00:01.380Z,6284
2018-02-05T14:01:02.997Z,6268
2018-02-05T14:02:04.602Z,6232
2018-02-05T14:03:06.219Z,6120
2018-02-05T14:04:07.831Z,6160
2018-02-05T14:05:09.446Z,6140
2018-02-05T14:06:11.056Z,6060
2018-02-05T14:07:12.663Z,5956
2018-02-05T14:08:14.278Z,5896
2018-02-05T14:09:15.891Z,5844
2018-02-05T14:10:17.500Z,5760
2018-02-05T14:11:19.108Z,5712
2018-02-05T14:12:20.723Z,5752
2018-02-05T14:13:22.334Z,5768
2018-02-05T14:14:23.943Z,5768
2018-02-05T14:15:25.556Z,5712